sensor_id;sensor_type;location;lat;lon;timestamp;P1;durP1;ratioP1;P2;durP2;ratioP2
45842;SDS011;31563;51.744;8.252;2023-08-01T00:01:38;1.08;;;0.52;;
45842;SDS011;31563;51.744;8.252;2023-08-01T00:04:07;2.85;;;0.70;;
45842;SDS011;31563;51.744;8.252;2023-08-01T00:06:35;1.00;;;0.50;;
45842;SDS011;31563;51.744;8.252;2023-08-01T00:09:04;0.70;;;0.50;;
45842;SDS011;31563;51.744;8.252;2023-08-01T00:11:32;0.88;;;0.60;;
45842;SDS011;31563;51.744;8.252;2023-08-01T00:13:59;1.25;;;0.60;;
45842;SDS011;31563;51.744;8.252;2023-08-01T00:16:27;0.80;;;0.52;;
45842;SDS011;31563;51.744;8.252;2023-08-01T00:18:55;0.50;;;0.40;;
45842;SDS011;31563;51.744;8.252;2023-08-01T00:21:24;0.50;;;0.30;;
45842;SDS011;31563;51.744;8.252;2023-08-01T00:23:52;1.70;;;0.73;;
45842;SDS011;31563;51.744;8.252;2023-08-01T00:26:21;1.40;;;0.80;;
45842;SDS011;31563;51.744;8.252;2023-08-01T00:28:49;1.55;;;0.63;;
45842;SDS011;31563;51.744;8.252;2023-08-01T00:31:17;1.10;;;0.50;;
45842;SDS011;31563;51.744;8.252;2023-08-01T00:33:44;1.15;;;0.40;;
45842;SDS011;31563;51.744;8.252;2023-08-01T00:36:12;0.90;;;0.60;;
45842;SDS011;31563;51.744;8.252;2023-08-01T00:38:42;1.50;;;0.40;;
45842;SDS011;31563;51.744;8.252;2023-08-01T00:41:10;1.13;;;0.60;;
45842;SDS011;31563;51.744;8.252;2023-08-01T00:43:38;0.80;;;0.43;;
45842;SDS011;31563;51.744;8.252;2023-08-01T00:46:06;0.90;;;0.40;;
45842;SDS011;31563;51.744;8.252;2023-08-01T00:48:36;1.20;;;0.55;;
45842;SDS011;31563;51.744;8.252;2023-08-01T00:51:04;0.68;;;0.40;;
45842;SDS011;31563;51.744;8.252;2023-08-01T00:53:33;2.05;;;1.02;;
45842;SDS011;31563;51.744;8.252;2023-08-01T00:56:03;1.35;;;0.45;;
45842;SDS011;31563;51.744;8.252;2023-08-01T00:58:31;1.02;;;0.50;;
45842;SDS011;31563;51.744;8.252;2023-08-01T01:00:59;0.68;;;0.43;;
45842;SDS011;31563;51.744;8.252;2023-08-01T01:03:27;0.80;;;0.50;;
45842;SDS011;31563;51.744;8.252;2023-08-01T01:05:56;0.60;;;0.40;;
45842;SDS011;31563;51.744;8.252;2023-08-01T01:08:28;1.73;;;0.30;;
45842;SDS011;31563;51.744;8.252;2023-08-01T01:10:57;0.90;;;0.50;;
45842;SDS011;31563;51.744;8.252;2023-08-01T01:13:26;0.57;;;0.30;;
45842;SDS011;31563;51.744;8.252;2023-08-01T01:15:54;0.70;;;0.40;;
45842;SDS011;31563;51.744;8.252;2023-08-01T01:18:22;0.80;;;0.43;;
45842;SDS011;31563;51.744;8.252;2023-08-01T01:20:51;1.95;;;0.50;;
45842;SDS011;31563;51.744;8.252;2023-08-01T01:23:19;1.52;;;0.70;;
45842;SDS011;31563;51.744;8.252;2023-08-01T01:25:49;0.60;;;0.30;;
45842;SDS011;31563;51.744;8.252;2023-08-01T01:28:18;1.27;;;0.45;;
45842;SDS011;31563;51.744;8.252;2023-08-01T01:30:48;1.52;;;0.40;;
45842;SDS011;31563;51.744;8.252;2023-08-01T01:33:17;0.70;;;0.30;;
45842;SDS011;31563;51.744;8.252;2023-08-01T01:35:45;1.58;;;0.40;;
45842;SDS011;31563;51.744;8.252;2023-08-01T01:38:15;0.80;;;0.30;;
45842;SDS011;31563;51.744;8.252;2023-08-01T01:40:44;1.10;;;0.35;;
45842;SDS011;31563;51.744;8.252;2023-08-01T01:43:12;0.40;;;0.38;;
45842;SDS011;31563;51.744;8.252;2023-08-01T01:45:40;1.42;;;0.40;;
45842;SDS011;31563;51.744;8.252;2023-08-01T01:48:07;1.15;;;0.43;;
45842;SDS011;31563;51.744;8.252;2023-08-01T01:50:35;2.22;;;0.40;;
45842;SDS011;31563;51.744;8.252;2023-08-01T01:53:03;0.82;;;0.30;;
45842;SDS011;31563;51.744;8.252;2023-08-01T01:55:32;0.43;;;0.30;;
45842;SDS011;31563;51.744;8.252;2023-08-01T01:58:01;1.05;;;0.30;;
45842;SDS011;31563;51.744;8.252;2023-08-01T02:00:29;0.50;;;0.40;;
45842;SDS011;31563;51.744;8.252;2023-08-01T02:02:57;0.50;;;0.38;;
45842;SDS011;31563;51.744;8.252;2023-08-01T02:05:25;0.35;;;0.30;;
45842;SDS011;31563;51.744;8.252;2023-08-01T02:07:53;0.50;;;0.32;;
45842;SDS011;31563;51.744;8.252;2023-08-01T02:10:21;1.02;;;0.35;;
45842;SDS011;31563;51.744;8.252;2023-08-01T02:12:50;0.60;;;0.30;;
45842;SDS011;31563;51.744;8.252;2023-08-01T02:15:18;0.60;;;0.30;;
45842;SDS011;31563;51.744;8.252;2023-08-01T02:17:46;1.08;;;0.25;;
45842;SDS011;31563;51.744;8.252;2023-08-01T02:20:14;0.82;;;0.40;;
45842;SDS011;31563;51.744;8.252;2023-08-01T02:22:42;0.40;;;0.30;;
45842;SDS011;31563;51.744;8.252;2023-08-01T02:25:10;0.43;;;0.17;;
45842;SDS011;31563;51.744;8.252;2023-08-01T02:27:38;0.88;;;0.30;;
45842;SDS011;31563;51.744;8.252;2023-08-01T02:30:08;0.25;;;0.20;;
45842;SDS011;31563;51.744;8.252;2023-08-01T02:32:37;0.50;;;0.20;;
45842;SDS011;31563;51.744;8.252;2023-08-01T02:35:05;0.70;;;0.28;;
45842;SDS011;31563;51.744;8.252;2023-08-01T02:37:34;0.45;;;0.30;;
45842;SDS011;31563;51.744;8.252;2023-08-01T02:40:02;2.15;;;0.20;;
45842;SDS011;31563;51.744;8.252;2023-08-01T02:42:33;0.30;;;0.20;;
45842;SDS011;31563;51.744;8.252;2023-08-01T02:45:01;1.33;;;0.30;;
45842;SDS011;31563;51.744;8.252;2023-08-01T02:47:31;0.75;;;0.30;;
45842;SDS011;31563;51.744;8.252;2023-08-01T02:49:59;0.90;;;0.20;;
45842;SDS011;31563;51.744;8.252;2023-08-01T02:52:27;1.42;;;0.30;;
45842;SDS011;31563;51.744;8.252;2023-08-01T02:54:55;1.48;;;0.28;;
45842;SDS011;31563;51.744;8.252;2023-08-01T02:57:23;1.00;;;0.40;;
45842;SDS011;31563;51.744;8.252;2023-08-01T02:59:51;1.00;;;0.40;;
45842;SDS011;31563;51.744;8.252;2023-08-01T03:02:20;0.98;;;0.40;;
45842;SDS011;31563;51.744;8.252;2023-08-01T03:04:49;0.82;;;0.47;;
45842;SDS011;31563;51.744;8.252;2023-08-01T03:07:17;0.73;;;0.40;;
45842;SDS011;31563;51.744;8.252;2023-08-01T03:09:44;0.52;;;0.30;;
45842;SDS011;31563;51.744;8.252;2023-08-01T03:12:12;1.15;;;0.45;;
45842;SDS011;31563;51.744;8.252;2023-08-01T03:14:40;0.70;;;0.68;;
45842;SDS011;31563;51.744;8.252;2023-08-01T03:17:10;0.90;;;0.50;;
45842;SDS011;31563;51.744;8.252;2023-08-01T03:19:38;2.15;;;0.43;;
45842;SDS011;31563;51.744;8.252;2023-08-01T03:22:07;0.95;;;0.63;;
45842;SDS011;31563;51.744;8.252;2023-08-01T03:24:35;2.03;;;0.60;;
45842;SDS011;31563;51.744;8.252;2023-08-01T03:27:03;0.60;;;0.50;;
45842;SDS011;31563;51.744;8.252;2023-08-01T03:29:32;0.85;;;0.65;;
45842;SDS011;31563;51.744;8.252;2023-08-01T03:32:00;2.00;;;0.60;;
45842;SDS011;31563;51.744;8.252;2023-08-01T03:34:28;0.82;;;0.43;;
45842;SDS011;31563;51.744;8.252;2023-08-01T03:36:56;0.82;;;0.50;;
45842;SDS011;31563;51.744;8.252;2023-08-01T03:39:25;0.73;;;0.40;;
45842;SDS011;31563;51.744;8.252;2023-08-01T03:41:53;0.83;;;0.50;;
45842;SDS011;31563;51.744;8.252;2023-08-01T03:44:21;0.77;;;0.50;;
45842;SDS011;31563;51.744;8.252;2023-08-01T03:46:49;0.73;;;0.60;;
45842;SDS011;31563;51.744;8.252;2023-08-01T03:49:17;1.05;;;0.50;;
45842;SDS011;31563;51.744;8.252;2023-08-01T03:51:45;0.68;;;0.50;;
45842;SDS011;31563;51.744;8.252;2023-08-01T03:54:13;0.50;;;0.35;;
45842;SDS011;31563;51.744;8.252;2023-08-01T03:56:42;2.28;;;0.68;;
45842;SDS011;31563;51.744;8.252;2023-08-01T03:59:12;1.10;;;0.80;;
45842;SDS011;31563;51.744;8.252;2023-08-01T04:01:41;0.33;;;0.30;;
45842;SDS011;31563;51.744;8.252;2023-08-01T04:04:09;1.20;;;0.60;;
45842;SDS011;31563;51.744;8.252;2023-08-01T04:06:37;0.90;;;0.40;;
45842;SDS011;31563;51.744;8.252;2023-08-01T04:09:06;1.83;;;0.60;;
45842;SDS011;31563;51.744;8.252;2023-08-01T04:11:34;1.02;;;0.50;;
45842;SDS011;31563;51.744;8.252;2023-08-01T04:14:03;1.10;;;0.60;;
45842;SDS011;31563;51.744;8.252;2023-08-01T04:16:31;1.13;;;0.82;;
45842;SDS011;31563;51.744;8.252;2023-08-01T04:18:59;1.02;;;0.70;;
45842;SDS011;31563;51.744;8.252;2023-08-01T04:21:27;0.82;;;0.60;;
45842;SDS011;31563;51.744;8.252;2023-08-01T04:23:55;0.98;;;0.75;;
45842;SDS011;31563;51.744;8.252;2023-08-01T04:26:23;1.33;;;0.80;;
45842;SDS011;31563;51.744;8.252;2023-08-01T04:28:50;1.92;;;1.08;;
45842;SDS011;31563;51.744;8.252;2023-08-01T04:31:20;2.30;;;1.13;;
45842;SDS011;31563;51.744;8.252;2023-08-01T04:33:48;2.17;;;1.25;;
45842;SDS011;31563;51.744;8.252;2023-08-01T04:36:15;3.03;;;1.35;;
45842;SDS011;31563;51.744;8.252;2023-08-01T04:38:43;1.33;;;1.15;;
45842;SDS011;31563;51.744;8.252;2023-08-01T04:41:11;2.28;;;1.05;;
45842;SDS011;31563;51.744;8.252;2023-08-01T04:43:39;2.03;;;1.83;;
45842;SDS011;31563;51.744;8.252;2023-08-01T04:46:07;1.10;;;0.93;;
45842;SDS011;31563;51.744;8.252;2023-08-01T04:48:40;1.55;;;1.20;;
45842;SDS011;31563;51.744;8.252;2023-08-01T04:51:08;1.75;;;1.30;;
45842;SDS011;31563;51.744;8.252;2023-08-01T04:53:36;2.45;;;1.08;;
45842;SDS011;31563;51.744;8.252;2023-08-01T04:56:04;1.83;;;1.40;;
45842;SDS011;31563;51.744;8.252;2023-08-01T04:58:32;2.15;;;1.35;;
45842;SDS011;31563;51.744;8.252;2023-08-01T05:01:00;1.77;;;1.52;;
45842;SDS011;31563;51.744;8.252;2023-08-01T05:03:28;2.42;;;1.80;;
45842;SDS011;31563;51.744;8.252;2023-08-01T05:05:58;1.55;;;1.15;;
45842;SDS011;31563;51.744;8.252;2023-08-01T05:08:25;1.83;;;1.40;;
45842;SDS011;31563;51.744;8.252;2023-08-01T05:10:53;1.85;;;1.65;;
45842;SDS011;31563;51.744;8.252;2023-08-01T05:13:21;1.48;;;1.38;;
45842;SDS011;31563;51.744;8.252;2023-08-01T05:15:49;3.22;;;2.55;;
45842;SDS011;31563;51.744;8.252;2023-08-01T05:18:17;3.03;;;2.45;;
45842;SDS011;31563;51.744;8.252;2023-08-01T05:20:45;2.10;;;1.88;;
45842;SDS011;31563;51.744;8.252;2023-08-01T05:23:14;1.95;;;1.75;;
45842;SDS011;31563;51.744;8.252;2023-08-01T05:25:42;1.45;;;1.35;;
45842;SDS011;31563;51.744;8.252;2023-08-01T05:28:10;2.03;;;1.52;;
45842;SDS011;31563;51.744;8.252;2023-08-01T05:30:39;2.13;;;1.73;;
45842;SDS011;31563;51.744;8.252;2023-08-01T05:33:07;1.77;;;1.57;;
45842;SDS011;31563;51.744;8.252;2023-08-01T05:35:35;2.30;;;1.75;;
45842;SDS011;31563;51.744;8.252;2023-08-01T05:38:03;2.65;;;1.60;;
45842;SDS011;31563;51.744;8.252;2023-08-01T05:40:32;1.60;;;1.50;;
45842;SDS011;31563;51.744;8.252;2023-08-01T05:43:00;3.10;;;1.60;;
45842;SDS011;31563;51.744;8.252;2023-08-01T05:45:30;2.65;;;1.70;;
45842;SDS011;31563;51.744;8.252;2023-08-01T05:47:58;4.03;;;1.98;;
45842;SDS011;31563;51.744;8.252;2023-08-01T05:50:26;1.92;;;1.27;;
45842;SDS011;31563;51.744;8.252;2023-08-01T05:52:54;2.03;;;1.80;;
45842;SDS011;31563;51.744;8.252;2023-08-01T05:55:22;1.95;;;1.40;;
45842;SDS011;31563;51.744;8.252;2023-08-01T05:57:51;3.30;;;1.70;;
45842;SDS011;31563;51.744;8.252;2023-08-01T06:00:20;2.20;;;1.58;;
45842;SDS011;31563;51.744;8.252;2023-08-01T06:02:48;1.85;;;1.40;;
45842;SDS011;31563;51.744;8.252;2023-08-01T06:05:16;4.43;;;2.22;;
45842;SDS011;31563;51.744;8.252;2023-08-01T06:07:44;3.05;;;1.92;;
45842;SDS011;31563;51.744;8.252;2023-08-01T06:10:12;4.35;;;2.40;;
45842;SDS011;31563;51.744;8.252;2023-08-01T06:12:40;3.33;;;2.85;;
45842;SDS011;31563;51.744;8.252;2023-08-01T06:15:10;2.33;;;1.77;;
45842;SDS011;31563;51.744;8.252;2023-08-01T06:17:37;3.03;;;1.83;;
45842;SDS011;31563;51.744;8.252;2023-08-01T06:20:06;4.00;;;2.40;;
45842;SDS011;31563;51.744;8.252;2023-08-01T06:22:34;2.92;;;1.98;;
45842;SDS011;31563;51.744;8.252;2023-08-01T06:25:02;3.85;;;3.00;;
45842;SDS011;31563;51.744;8.252;2023-08-01T06:27:31;5.35;;;3.78;;
45842;SDS011;31563;51.744;8.252;2023-08-01T06:29:59;8.15;;;5.22;;
45842;SDS011;31563;51.744;8.252;2023-08-01T06:32:28;8.52;;;5.53;;
45842;SDS011;31563;51.744;8.252;2023-08-01T06:34:56;9.50;;;5.20;;
45842;SDS011;31563;51.744;8.252;2023-08-01T06:37:24;9.95;;;5.72;;
45842;SDS011;31563;51.744;8.252;2023-08-01T06:39:51;8.05;;;5.97;;
45842;SDS011;31563;51.744;8.252;2023-08-01T06:42:19;8.93;;;4.85;;
45842;SDS011;31563;51.744;8.252;2023-08-01T06:44:47;7.32;;;5.32;;
45842;SDS011;31563;51.744;8.252;2023-08-01T06:47:15;6.70;;;4.90;;
45842;SDS011;31563;51.744;8.252;2023-08-01T06:49:44;7.93;;;5.63;;
45842;SDS011;31563;51.744;8.252;2023-08-01T06:52:12;8.88;;;6.10;;
45842;SDS011;31563;51.744;8.252;2023-08-01T06:54:40;6.78;;;5.50;;
45842;SDS011;31563;51.744;8.252;2023-08-01T06:57:08;11.13;;;7.53;;
45842;SDS011;31563;51.744;8.252;2023-08-01T06:59:36;7.78;;;6.97;;
45842;SDS011;31563;51.744;8.252;2023-08-01T07:02:05;8.90;;;7.47;;
45842;SDS011;31563;51.744;8.252;2023-08-01T07:04:33;8.95;;;8.02;;
45842;SDS011;31563;51.744;8.252;2023-08-01T07:07:03;8.88;;;8.02;;
45842;SDS011;31563;51.744;8.252;2023-08-01T07:09:32;10.23;;;7.68;;
45842;SDS011;31563;51.744;8.252;2023-08-01T07:12:00;10.65;;;8.88;;
45842;SDS011;31563;51.744;8.252;2023-08-01T07:14:28;11.70;;;8.63;;
45842;SDS011;31563;51.744;8.252;2023-08-01T07:16:56;10.95;;;8.32;;
45842;SDS011;31563;51.744;8.252;2023-08-01T07:19:23;10.18;;;8.80;;
45842;SDS011;31563;51.744;8.252;2023-08-01T07:21:51;13.45;;;10.07;;
45842;SDS011;31563;51.744;8.252;2023-08-01T07:24:22;12.13;;;9.43;;
45842;SDS011;31563;51.744;8.252;2023-08-01T07:26:50;14.80;;;10.93;;
45842;SDS011;31563;51.744;8.252;2023-08-01T07:29:18;9.80;;;8.57;;
45842;SDS011;31563;51.744;8.252;2023-08-01T07:31:46;9.30;;;7.55;;
45842;SDS011;31563;51.744;8.252;2023-08-01T07:34:14;13.27;;;9.95;;
45842;SDS011;31563;51.744;8.252;2023-08-01T07:36:41;11.70;;;8.98;;
45842;SDS011;31563;51.744;8.252;2023-08-01T07:39:09;11.13;;;9.88;;
45842;SDS011;31563;51.744;8.252;2023-08-01T07:41:39;13.38;;;9.55;;
45842;SDS011;31563;51.744;8.252;2023-08-01T07:44:06;10.80;;;9.63;;
45842;SDS011;31563;51.744;8.252;2023-08-01T07:46:34;12.73;;;10.05;;
45842;SDS011;31563;51.744;8.252;2023-08-01T07:49:02;11.57;;;10.18;;
45842;SDS011;31563;51.744;8.252;2023-08-01T07:51:30;10.13;;;9.10;;
45842;SDS011;31563;51.744;8.252;2023-08-01T07:53:59;11.98;;;10.50;;
45842;SDS011;31563;51.744;8.252;2023-08-01T07:56:27;10.90;;;9.77;;
45842;SDS011;31563;51.744;8.252;2023-08-01T07:58:56;12.68;;;11.27;;
45842;SDS011;31563;51.744;8.252;2023-08-01T08:01:24;12.27;;;10.75;;
45842;SDS011;31563;51.744;8.252;2023-08-01T08:03:52;12.50;;;11.23;;
45842;SDS011;31563;51.744;8.252;2023-08-01T08:06:20;13.80;;;12.02;;
45842;SDS011;31563;51.744;8.252;2023-08-01T08:08:49;12.47;;;11.27;;
45842;SDS011;31563;51.744;8.252;2023-08-01T08:11:17;13.27;;;11.00;;
45842;SDS011;31563;51.744;8.252;2023-08-01T08:13:45;11.65;;;9.00;;
45842;SDS011;31563;51.744;8.252;2023-08-01T08:16:14;11.57;;;9.73;;
45842;SDS011;31563;51.744;8.252;2023-08-01T08:18:42;10.52;;;9.35;;
45842;SDS011;31563;51.744;8.252;2023-08-01T08:21:10;10.43;;;9.38;;
45842;SDS011;31563;51.744;8.252;2023-08-01T08:23:38;11.23;;;9.18;;
45842;SDS011;31563;51.744;8.252;2023-08-01T08:26:06;10.25;;;9.00;;
45842;SDS011;31563;51.744;8.252;2023-08-01T08:28:34;9.90;;;8.75;;
45842;SDS011;31563;51.744;8.252;2023-08-01T08:31:02;9.90;;;8.73;;
45842;SDS011;31563;51.744;8.252;2023-08-01T08:33:32;9.68;;;8.32;;
45842;SDS011;31563;51.744;8.252;2023-08-01T08:35:59;8.77;;;7.88;;
45842;SDS011;31563;51.744;8.252;2023-08-01T08:38:27;10.48;;;8.43;;
45842;SDS011;31563;51.744;8.252;2023-08-01T08:40:59;10.60;;;8.13;;
45842;SDS011;31563;51.744;8.252;2023-08-01T08:43:34;8.30;;;7.32;;
45842;SDS011;31563;51.744;8.252;2023-08-01T08:46:02;9.55;;;7.60;;
45842;SDS011;31563;51.744;8.252;2023-08-01T08:48:32;9.17;;;7.73;;
45842;SDS011;31563;51.744;8.252;2023-08-01T08:51:02;8.63;;;6.63;;
45842;SDS011;31563;51.744;8.252;2023-08-01T08:53:30;7.90;;;7.10;;
45842;SDS011;31563;51.744;8.252;2023-08-01T08:55:59;7.40;;;6.57;;
45842;SDS011;31563;51.744;8.252;2023-08-01T08:58:29;7.03;;;6.07;;
45842;SDS011;31563;51.744;8.252;2023-08-01T09:00:57;8.10;;;6.55;;
45842;SDS011;31563;51.744;8.252;2023-08-01T09:03:27;7.18;;;6.45;;
45842;SDS011;31563;51.744;8.252;2023-08-01T09:06:00;9.68;;;6.53;;
45842;SDS011;31563;51.744;8.252;2023-08-01T09:08:32;8.50;;;6.93;;
45842;SDS011;31563;51.744;8.252;2023-08-01T09:11:03;9.20;;;5.75;;
45842;SDS011;31563;51.744;8.252;2023-08-01T09:13:31;9.63;;;5.97;;
45842;SDS011;31563;51.744;8.252;2023-08-01T09:15:59;7.82;;;6.82;;
45842;SDS011;31563;51.744;8.252;2023-08-01T09:18:29;9.32;;;7.82;;
45842;SDS011;31563;51.744;8.252;2023-08-01T09:20:58;9.13;;;7.05;;
45842;SDS011;31563;51.744;8.252;2023-08-01T09:23:28;9.02;;;7.10;;
45842;SDS011;31563;51.744;8.252;2023-08-01T09:25:57;9.52;;;7.20;;
45842;SDS011;31563;51.744;8.252;2023-08-01T09:28:26;8.67;;;6.67;;
45842;SDS011;31563;51.744;8.252;2023-08-01T09:30:54;10.43;;;6.20;;
45842;SDS011;31563;51.744;8.252;2023-08-01T09:33:24;7.72;;;6.38;;
45842;SDS011;31563;51.744;8.252;2023-08-01T09:35:52;9.05;;;6.53;;
45842;SDS011;31563;51.744;8.252;2023-08-01T09:38:21;9.93;;;6.78;;
45842;SDS011;31563;51.744;8.252;2023-08-01T09:40:49;7.90;;;7.10;;
45842;SDS011;31563;51.744;8.252;2023-08-01T09:43:17;7.05;;;6.10;;
45842;SDS011;31563;51.744;8.252;2023-08-01T09:45:51;6.30;;;5.40;;
45842;SDS011;31563;51.744;8.252;2023-08-01T09:48:22;6.53;;;4.72;;
45842;SDS011;31563;51.744;8.252;2023-08-01T09:50:51;6.82;;;5.18;;
45842;SDS011;31563;51.744;8.252;2023-08-01T09:53:19;5.20;;;4.53;;
45842;SDS011;31563;51.744;8.252;2023-08-01T09:55:48;7.53;;;4.10;;
45842;SDS011;31563;51.744;8.252;2023-08-01T09:58:18;6.40;;;4.40;;
45842;SDS011;31563;51.744;8.252;2023-08-01T10:00:49;7.55;;;4.65;;
45842;SDS011;31563;51.744;8.252;2023-08-01T10:03:18;5.53;;;4.53;;
45842;SDS011;31563;51.744;8.252;2023-08-01T10:05:48;8.35;;;4.00;;
45842;SDS011;31563;51.744;8.252;2023-08-01T10:08:19;6.35;;;3.63;;
45842;SDS011;31563;51.744;8.252;2023-08-01T10:10:50;4.88;;;3.78;;
45842;SDS011;31563;51.744;8.252;2023-08-01T10:13:19;3.92;;;3.47;;
45842;SDS011;31563;51.744;8.252;2023-08-01T10:15:50;4.78;;;3.15;;
45842;SDS011;31563;51.744;8.252;2023-08-01T10:18:18;5.63;;;3.33;;
45842;SDS011;31563;51.744;8.252;2023-08-01T10:20:47;6.17;;;3.33;;
45842;SDS011;31563;51.744;8.252;2023-08-01T10:23:16;6.18;;;3.75;;
45842;SDS011;31563;51.744;8.252;2023-08-01T10:25:45;5.23;;;3.50;;
45842;SDS011;31563;51.744;8.252;2023-08-01T10:28:14;4.57;;;3.35;;
45842;SDS011;31563;51.744;8.252;2023-08-01T10:30:42;4.95;;;3.28;;
45842;SDS011;31563;51.744;8.252;2023-08-01T10:33:10;4.93;;;3.40;;
45842;SDS011;31563;51.744;8.252;2023-08-01T10:35:40;5.28;;;3.63;;
45842;SDS011;31563;51.744;8.252;2023-08-01T10:38:08;6.75;;;2.97;;
45842;SDS011;31563;51.744;8.252;2023-08-01T10:40:38;4.70;;;3.03;;
45842;SDS011;31563;51.744;8.252;2023-08-01T10:43:19;4.50;;;2.75;;
45842;SDS011;31563;51.744;8.252;2023-08-01T10:45:48;5.63;;;3.05;;
45842;SDS011;31563;51.744;8.252;2023-08-01T10:48:26;3.58;;;2.70;;
45842;SDS011;31563;51.744;8.252;2023-08-01T10:50:54;4.47;;;2.63;;
45842;SDS011;31563;51.744;8.252;2023-08-01T10:53:23;3.85;;;2.53;;
45842;SDS011;31563;51.744;8.252;2023-08-01T10:55:51;5.68;;;2.95;;
45842;SDS011;31563;51.744;8.252;2023-08-01T10:58:21;4.32;;;3.22;;
45842;SDS011;31563;51.744;8.252;2023-08-01T11:00:57;6.13;;;3.40;;
45842;SDS011;31563;51.744;8.252;2023-08-01T11:03:33;4.13;;;2.75;;
45842;SDS011;31563;51.744;8.252;2023-08-01T11:06:02;4.22;;;3.20;;
45842;SDS011;31563;51.744;8.252;2023-08-01T11:11:03;6.40;;;3.85;;
45842;SDS011;31563;51.744;8.252;2023-08-01T11:13:34;8.18;;;4.85;;
45842;SDS011;31563;51.744;8.252;2023-08-01T11:16:02;9.90;;;3.92;;
45842;SDS011;31563;51.744;8.252;2023-08-01T11:18:40;4.68;;;3.47;;
45842;SDS011;31563;51.744;8.252;2023-08-01T11:21:09;6.28;;;3.63;;
45842;SDS011;31563;51.744;8.252;2023-08-01T11:23:37;6.38;;;3.80;;
45842;SDS011;31563;51.744;8.252;2023-08-01T11:26:06;6.45;;;4.18;;
45842;SDS011;31563;51.744;8.252;2023-08-01T11:28:36;6.45;;;3.75;;
45842;SDS011;31563;51.744;8.252;2023-08-01T11:31:10;5.05;;;3.35;;
45842;SDS011;31563;51.744;8.252;2023-08-01T11:33:38;4.00;;;3.05;;
45842;SDS011;31563;51.744;8.252;2023-08-01T11:36:06;4.90;;;2.75;;
45842;SDS011;31563;51.744;8.252;2023-08-01T11:38:36;5.10;;;2.95;;
45842;SDS011;31563;51.744;8.252;2023-08-01T11:41:04;4.47;;;2.70;;
45842;SDS011;31563;51.744;8.252;2023-08-01T11:43:39;3.88;;;2.58;;
45842;SDS011;31563;51.744;8.252;2023-08-01T11:46:07;3.80;;;2.50;;
45842;SDS011;31563;51.744;8.252;2023-08-01T11:48:36;3.88;;;1.73;;
45842;SDS011;31563;51.744;8.252;2023-08-01T11:51:04;3.85;;;1.90;;
45842;SDS011;31563;51.744;8.252;2023-08-01T11:53:32;3.92;;;2.08;;
45842;SDS011;31563;51.744;8.252;2023-08-01T11:56:04;3.35;;;1.65;;
45842;SDS011;31563;51.744;8.252;2023-08-01T11:58:33;3.75;;;2.40;;
45842;SDS011;31563;51.744;8.252;2023-08-01T12:01:04;4.63;;;2.25;;
45842;SDS011;31563;51.744;8.252;2023-08-01T12:03:41;3.83;;;2.03;;
45842;SDS011;31563;51.744;8.252;2023-08-01T12:06:10;5.85;;;2.30;;
45842;SDS011;31563;51.744;8.252;2023-08-01T12:08:40;3.28;;;1.83;;
45842;SDS011;31563;51.744;8.252;2023-08-01T12:11:17;3.83;;;1.67;;
45842;SDS011;31563;51.744;8.252;2023-08-01T12:13:46;4.47;;;1.88;;
45842;SDS011;31563;51.744;8.252;2023-08-01T12:16:15;5.07;;;1.77;;
45842;SDS011;31563;51.744;8.252;2023-08-01T12:18:46;3.15;;;1.45;;
45842;SDS011;31563;51.744;8.252;2023-08-01T12:21:26;3.53;;;1.73;;
45842;SDS011;31563;51.744;8.252;2023-08-01T12:23:54;4.50;;;1.98;;
45842;SDS011;31563;51.744;8.252;2023-08-01T12:26:22;2.67;;;1.73;;
45842;SDS011;31563;51.744;8.252;2023-08-01T12:28:50;3.38;;;1.95;;
45842;SDS011;31563;51.744;8.252;2023-08-01T12:31:19;4.32;;;1.67;;
45842;SDS011;31563;51.744;8.252;2023-08-01T12:33:48;3.63;;;1.52;;
45842;SDS011;31563;51.744;8.252;2023-08-01T12:36:16;3.42;;;1.45;;
45842;SDS011;31563;51.744;8.252;2023-08-01T12:38:44;3.97;;;1.60;;
45842;SDS011;31563;51.744;8.252;2023-08-01T12:41:12;3.15;;;1.60;;
45842;SDS011;31563;51.744;8.252;2023-08-01T12:43:40;3.55;;;1.27;;
45842;SDS011;31563;51.744;8.252;2023-08-01T12:46:09;2.63;;;1.60;;
45842;SDS011;31563;51.744;8.252;2023-08-01T12:48:38;2.83;;;1.50;;
45842;SDS011;31563;51.744;8.252;2023-08-01T12:53:36;4.53;;;1.42;;
45842;SDS011;31563;51.744;8.252;2023-08-01T12:56:05;2.97;;;1.77;;
45842;SDS011;31563;51.744;8.252;2023-08-01T12:58:33;4.15;;;1.42;;
45842;SDS011;31563;51.744;8.252;2023-08-01T13:01:02;3.13;;;1.27;;
45842;SDS011;31563;51.744;8.252;2023-08-01T13:03:30;3.95;;;2.08;;
45842;SDS011;31563;51.744;8.252;2023-08-01T13:06:00;3.05;;;1.65;;
45842;SDS011;31563;51.744;8.252;2023-08-01T13:10:56;5.45;;;2.20;;
45842;SDS011;31563;51.744;8.252;2023-08-01T13:13:26;5.30;;;1.92;;
45842;SDS011;31563;51.744;8.252;2023-08-01T13:15:55;4.07;;;1.70;;
45842;SDS011;31563;51.744;8.252;2023-08-01T13:18:23;2.67;;;1.75;;
45842;SDS011;31563;51.744;8.252;2023-08-01T13:20:51;4.90;;;1.73;;
45842;SDS011;31563;51.744;8.252;2023-08-01T13:23:21;4.30;;;2.13;;
45842;SDS011;31563;51.744;8.252;2023-08-01T13:28:16;4.07;;;1.85;;
45842;SDS011;31563;51.744;8.252;2023-08-01T13:30:44;4.32;;;1.80;;
45842;SDS011;31563;51.744;8.252;2023-08-01T13:33:12;3.28;;;1.77;;
45842;SDS011;31563;51.744;8.252;2023-08-01T13:35:40;4.25;;;1.90;;
45842;SDS011;31563;51.744;8.252;2023-08-01T13:38:08;3.95;;;1.63;;
45842;SDS011;31563;51.744;8.252;2023-08-01T13:40:37;4.63;;;1.50;;
45842;SDS011;31563;51.744;8.252;2023-08-01T13:45:33;4.38;;;1.73;;
45842;SDS011;31563;51.744;8.252;2023-08-01T13:48:02;5.18;;;1.90;;
45842;SDS011;31563;51.744;8.252;2023-08-01T13:50:30;3.40;;;1.67;;
45842;SDS011;31563;51.744;8.252;2023-08-01T13:52:58;3.45;;;1.48;;
45842;SDS011;31563;51.744;8.252;2023-08-01T13:55:26;3.40;;;1.50;;
45842;SDS011;31563;51.744;8.252;2023-08-01T13:57:55;4.40;;;1.30;;
45842;SDS011;31563;51.744;8.252;2023-08-01T14:00:23;5.95;;;1.80;;
45842;SDS011;31563;51.744;8.252;2023-08-01T14:02:51;4.28;;;1.30;;
45842;SDS011;31563;51.744;8.252;2023-08-01T14:05:19;3.10;;;1.60;;
45842;SDS011;31563;51.744;8.252;2023-08-01T14:07:47;5.72;;;1.83;;
45842;SDS011;31563;51.744;8.252;2023-08-01T14:10:15;3.55;;;1.35;;
45842;SDS011;31563;51.744;8.252;2023-08-01T14:12:43;4.53;;;1.77;;
45842;SDS011;31563;51.744;8.252;2023-08-01T14:15:13;3.88;;;1.25;;
45842;SDS011;31563;51.744;8.252;2023-08-01T14:17:41;4.22;;;1.65;;
45842;SDS011;31563;51.744;8.252;2023-08-01T14:20:09;9.75;;;1.35;;
45842;SDS011;31563;51.744;8.252;2023-08-01T14:22:37;2.95;;;1.20;;
45842;SDS011;31563;51.744;8.252;2023-08-01T14:25:06;2.78;;;1.10;;
45842;SDS011;31563;51.744;8.252;2023-08-01T14:27:35;3.70;;;1.30;;
45842;SDS011;31563;51.744;8.252;2023-08-01T14:30:03;4.25;;;1.48;;
45842;SDS011;31563;51.744;8.252;2023-08-01T14:32:36;3.17;;;1.20;;
45842;SDS011;31563;51.744;8.252;2023-08-01T14:35:05;3.58;;;1.50;;
45842;SDS011;31563;51.744;8.252;2023-08-01T14:37:33;4.85;;;1.83;;
45842;SDS011;31563;51.744;8.252;2023-08-01T14:40:01;4.43;;;1.63;;
45842;SDS011;31563;51.744;8.252;2023-08-01T14:42:30;3.50;;;1.00;;
45842;SDS011;31563;51.744;8.252;2023-08-01T14:44:58;3.60;;;1.40;;
45842;SDS011;31563;51.744;8.252;2023-08-01T14:47:26;4.88;;;1.40;;
45842;SDS011;31563;51.744;8.252;2023-08-01T14:49:55;6.63;;;1.33;;
45842;SDS011;31563;51.744;8.252;2023-08-01T14:52:23;3.47;;;1.05;;
45842;SDS011;31563;51.744;8.252;2023-08-01T14:54:56;3.45;;;1.52;;
45842;SDS011;31563;51.744;8.252;2023-08-01T14:57:24;4.60;;;1.60;;
45842;SDS011;31563;51.744;8.252;2023-08-01T14:59:52;5.75;;;1.50;;
45842;SDS011;31563;51.744;8.252;2023-08-01T15:02:20;4.90;;;1.50;;
45842;SDS011;31563;51.744;8.252;2023-08-01T15:04:50;7.63;;;2.33;;
45842;SDS011;31563;51.744;8.252;2023-08-01T15:07:20;8.00;;;2.00;;